Terminal Aerodrome Forecast
Issued by NWS

Home | Current Version | Previous Version | Text Only | Print | Product List | Glossary On
Versions: 1 2 3 4 5 6 7 8 9 10 11 12 13 14 15 16 17 18 19 20 21 22 23 24 25 26 27 28 29 30 31 32 33 34 35 36 37 38 39 40 41 42 43 44 45 46 47 48 49 50
000
FTUS44 KHGX 261418 AAC
TAFIAH
TAF AMD
KIAH 261418Z 2614/2718 17006KT P6SM VCTS BKN017CB OVC100
      TEMPO 2614/2616 VRB20KT 6SM -TSRA
     FM262100 15011KT P6SM VCTS SCT015 OVC070CB
     FM270100 15010KT P6SM BKN015 BKN100
     FM270900 16009KT P6SM SCT008 OVC015
     FM271300 17011KT P6SM VCSH SCT015 BKN060=

USA.gov is the U.S. government's official web portal to all federal, state and local government web resources and services.